sensor_id;sensor_type;location;lat;lon;timestamp;P1;durP1;ratioP1;P2;durP2;ratioP2
42094;SDS011;27753;55.724;37.612;2023-04-03T00:01:43;16.70;;;10.30;;
42094;SDS011;27753;55.724;37.612;2023-04-03T00:04:09;13.65;;;9.60;;
42094;SDS011;27753;55.724;37.612;2023-04-03T00:06:35;16.15;;;9.93;;
42094;SDS011;27753;55.724;37.612;2023-04-03T00:09:01;17.98;;;10.50;;
42094;SDS011;27753;55.724;37.612;2023-04-03T00:11:27;14.50;;;10.45;;
42094;SDS011;27753;55.724;37.612;2023-04-03T00:13:56;13.75;;;10.10;;
42094;SDS011;27753;55.724;37.612;2023-04-03T00:16:22;13.38;;;9.63;;
42094;SDS011;27753;55.724;37.612;2023-04-03T00:18:47;16.75;;;10.32;;
42094;SDS011;27753;55.724;37.612;2023-04-03T00:21:14;14.20;;;9.07;;
42094;SDS011;27753;55.724;37.612;2023-04-03T00:23:40;12.85;;;9.90;;
42094;SDS011;27753;55.724;37.612;2023-04-03T00:26:06;12.75;;;9.68;;
42094;SDS011;27753;55.724;37.612;2023-04-03T00:28:32;11.40;;;9.27;;
42094;SDS011;27753;55.724;37.612;2023-04-03T00:30:58;14.20;;;8.77;;
42094;SDS011;27753;55.724;37.612;2023-04-03T00:33:24;10.40;;;8.93;;
42094;SDS011;27753;55.724;37.612;2023-04-03T00:35:50;12.15;;;9.40;;
42094;SDS011;27753;55.724;37.612;2023-04-03T00:38:17;11.00;;;8.50;;
42094;SDS011;27753;55.724;37.612;2023-04-03T00:40:44;15.02;;;10.23;;
42094;SDS011;27753;55.724;37.612;2023-04-03T00:43:15;14.77;;;9.02;;
42094;SDS011;27753;55.724;37.612;2023-04-03T00:45:47;14.52;;;10.20;;
42094;SDS011;27753;55.724;37.612;2023-04-03T00:48:39;15.00;;;10.02;;
42094;SDS011;27753;55.724;37.612;2023-04-03T00:51:06;11.38;;;8.45;;
42094;SDS011;27753;55.724;37.612;2023-04-03T00:53:40;14.40;;;9.82;;
42094;SDS011;27753;55.724;37.612;2023-04-03T00:56:10;15.43;;;9.00;;
42094;SDS011;27753;55.724;37.612;2023-04-03T00:58:42;15.60;;;8.90;;
42094;SDS011;27753;55.724;37.612;2023-04-03T01:01:14;12.75;;;8.43;;
42094;SDS011;27753;55.724;37.612;2023-04-03T01:03:42;10.73;;;8.38;;
42094;SDS011;27753;55.724;37.612;2023-04-03T01:06:08;12.60;;;9.18;;
42094;SDS011;27753;55.724;37.612;2023-04-03T01:08:34;11.38;;;9.00;;
42094;SDS011;27753;55.724;37.612;2023-04-03T01:11:01;15.43;;;9.25;;
42094;SDS011;27753;55.724;37.612;2023-04-03T01:13:28;12.93;;;9.30;;
42094;SDS011;27753;55.724;37.612;2023-04-03T01:15:55;15.10;;;9.13;;
42094;SDS011;27753;55.724;37.612;2023-04-03T01:18:22;13.07;;;8.90;;
42094;SDS011;27753;55.724;37.612;2023-04-03T01:20:58;14.95;;;9.48;;
42094;SDS011;27753;55.724;37.612;2023-04-03T01:23:52;14.02;;;8.90;;
42094;SDS011;27753;55.724;37.612;2023-04-03T01:26:30;15.63;;;8.60;;
42094;SDS011;27753;55.724;37.612;2023-04-03T01:28:58;12.30;;;9.30;;
42094;SDS011;27753;55.724;37.612;2023-04-03T01:31:26;16.00;;;11.55;;
42094;SDS011;27753;55.724;37.612;2023-04-03T01:36:20;12.32;;;9.10;;
42094;SDS011;27753;55.724;37.612;2023-04-03T01:38:51;14.43;;;9.23;;
42094;SDS011;27753;55.724;37.612;2023-04-03T01:41:19;11.80;;;9.07;;
42094;SDS011;27753;55.724;37.612;2023-04-03T01:43:46;17.23;;;10.05;;
42094;SDS011;27753;55.724;37.612;2023-04-03T01:46:13;10.57;;;9.13;;
42094;SDS011;27753;55.724;37.612;2023-04-03T01:48:39;16.20;;;9.50;;
42094;SDS011;27753;55.724;37.612;2023-04-03T01:51:05;15.68;;;10.00;;
42094;SDS011;27753;55.724;37.612;2023-04-03T01:53:31;16.45;;;10.93;;
42094;SDS011;27753;55.724;37.612;2023-04-03T01:55:57;12.77;;;10.57;;
42094;SDS011;27753;55.724;37.612;2023-04-03T01:58:23;16.48;;;10.98;;
42094;SDS011;27753;55.724;37.612;2023-04-03T02:00:49;14.50;;;10.50;;
42094;SDS011;27753;55.724;37.612;2023-04-03T02:03:16;14.48;;;10.93;;
42094;SDS011;27753;55.724;37.612;2023-04-03T02:05:43;14.40;;;10.43;;
42094;SDS011;27753;55.724;37.612;2023-04-03T02:08:10;14.48;;;11.10;;
42094;SDS011;27753;55.724;37.612;2023-04-03T02:10:36;15.10;;;10.85;;
42094;SDS011;27753;55.724;37.612;2023-04-03T02:13:02;15.05;;;10.82;;
42094;SDS011;27753;55.724;37.612;2023-04-03T02:15:28;13.88;;;10.70;;
42094;SDS011;27753;55.724;37.612;2023-04-03T02:17:54;15.38;;;10.48;;
42094;SDS011;27753;55.724;37.612;2023-04-03T02:20:20;15.35;;;11.80;;
42094;SDS011;27753;55.724;37.612;2023-04-03T02:22:47;16.55;;;11.82;;
42094;SDS011;27753;55.724;37.612;2023-04-03T02:25:13;19.90;;;12.68;;
42094;SDS011;27753;55.724;37.612;2023-04-03T02:27:39;15.77;;;12.27;;
42094;SDS011;27753;55.724;37.612;2023-04-03T02:30:05;22.15;;;14.13;;
42094;SDS011;27753;55.724;37.612;2023-04-03T02:32:32;19.17;;;13.95;;
42094;SDS011;27753;55.724;37.612;2023-04-03T02:34:58;17.58;;;13.02;;
42094;SDS011;27753;55.724;37.612;2023-04-03T02:37:24;15.90;;;12.85;;
42094;SDS011;27753;55.724;37.612;2023-04-03T02:39:50;25.35;;;13.88;;
42094;SDS011;27753;55.724;37.612;2023-04-03T02:42:15;21.23;;;13.98;;
42094;SDS011;27753;55.724;37.612;2023-04-03T02:44:41;19.35;;;13.75;;
42094;SDS011;27753;55.724;37.612;2023-04-03T02:47:07;25.70;;;14.27;;
42094;SDS011;27753;55.724;37.612;2023-04-03T02:49:33;22.20;;;14.00;;
42094;SDS011;27753;55.724;37.612;2023-04-03T02:51:59;19.83;;;14.85;;
42094;SDS011;27753;55.724;37.612;2023-04-03T02:54:25;17.00;;;13.32;;
42094;SDS011;27753;55.724;37.612;2023-04-03T02:56:53;19.42;;;12.88;;
42094;SDS011;27753;55.724;37.612;2023-04-03T02:59:19;21.33;;;14.65;;
42094;SDS011;27753;55.724;37.612;2023-04-03T03:01:45;22.85;;;14.15;;
42094;SDS011;27753;55.724;37.612;2023-04-03T03:04:11;21.10;;;15.30;;
42094;SDS011;27753;55.724;37.612;2023-04-03T03:06:37;24.30;;;14.50;;
42094;SDS011;27753;55.724;37.612;2023-04-03T03:09:03;21.65;;;17.08;;
42094;SDS011;27753;55.724;37.612;2023-04-03T03:11:30;21.67;;;14.85;;
42094;SDS011;27753;55.724;37.612;2023-04-03T03:13:56;22.45;;;15.90;;
42094;SDS011;27753;55.724;37.612;2023-04-03T03:16:22;19.23;;;14.10;;
42094;SDS011;27753;55.724;37.612;2023-04-03T03:18:48;21.60;;;15.73;;
42094;SDS011;27753;55.724;37.612;2023-04-03T03:21:15;24.13;;;15.90;;
42094;SDS011;27753;55.724;37.612;2023-04-03T03:23:42;22.67;;;14.82;;
42094;SDS011;27753;55.724;37.612;2023-04-03T03:26:09;30.58;;;16.90;;
42094;SDS011;27753;55.724;37.612;2023-04-03T03:28:36;28.00;;;16.73;;
42094;SDS011;27753;55.724;37.612;2023-04-03T03:31:03;23.48;;;15.45;;
42094;SDS011;27753;55.724;37.612;2023-04-03T03:33:29;23.52;;;15.77;;
42094;SDS011;27753;55.724;37.612;2023-04-03T03:35:55;24.10;;;16.77;;
42094;SDS011;27753;55.724;37.612;2023-04-03T03:38:22;24.98;;;15.63;;
42094;SDS011;27753;55.724;37.612;2023-04-03T03:40:48;23.50;;;16.30;;
42094;SDS011;27753;55.724;37.612;2023-04-03T03:43:16;26.40;;;15.63;;
42094;SDS011;27753;55.724;37.612;2023-04-03T03:45:42;23.50;;;16.45;;
42094;SDS011;27753;55.724;37.612;2023-04-03T03:48:08;29.50;;;16.80;;
42094;SDS011;27753;55.724;37.612;2023-04-03T03:50:34;25.00;;;16.25;;
42094;SDS011;27753;55.724;37.612;2023-04-03T03:53:00;23.10;;;14.52;;
42094;SDS011;27753;55.724;37.612;2023-04-03T03:55:26;24.17;;;15.45;;
42094;SDS011;27753;55.724;37.612;2023-04-03T03:57:52;25.52;;;14.88;;
42094;SDS011;27753;55.724;37.612;2023-04-03T04:00:18;25.90;;;16.63;;
42094;SDS011;27753;55.724;37.612;2023-04-03T04:02:44;21.33;;;15.88;;
42094;SDS011;27753;55.724;37.612;2023-04-03T04:05:10;31.83;;;18.13;;
42094;SDS011;27753;55.724;37.612;2023-04-03T04:07:36;23.95;;;15.82;;
42094;SDS011;27753;55.724;37.612;2023-04-03T04:10:02;21.13;;;16.13;;
42094;SDS011;27753;55.724;37.612;2023-04-03T04:12:29;27.00;;;16.73;;
42094;SDS011;27753;55.724;37.612;2023-04-03T04:14:55;20.80;;;15.18;;
42094;SDS011;27753;55.724;37.612;2023-04-03T04:17:21;23.63;;;16.50;;
42094;SDS011;27753;55.724;37.612;2023-04-03T04:19:47;24.60;;;15.55;;
42094;SDS011;27753;55.724;37.612;2023-04-03T04:22:12;25.02;;;16.27;;
42094;SDS011;27753;55.724;37.612;2023-04-03T04:24:38;19.15;;;14.25;;
42094;SDS011;27753;55.724;37.612;2023-04-03T04:27:04;24.58;;;14.88;;
42094;SDS011;27753;55.724;37.612;2023-04-03T04:29:30;25.42;;;15.20;;
42094;SDS011;27753;55.724;37.612;2023-04-03T04:32:01;24.83;;;15.23;;
42094;SDS011;27753;55.724;37.612;2023-04-03T04:34:27;26.10;;;15.43;;
42094;SDS011;27753;55.724;37.612;2023-04-03T04:36:53;24.92;;;17.17;;
42094;SDS011;27753;55.724;37.612;2023-04-03T04:39:19;24.48;;;16.83;;
42094;SDS011;27753;55.724;37.612;2023-04-03T04:41:45;28.17;;;17.75;;
42094;SDS011;27753;55.724;37.612;2023-04-03T04:44:11;35.60;;;17.25;;
42094;SDS011;27753;55.724;37.612;2023-04-03T04:46:37;29.83;;;16.50;;
42094;SDS011;27753;55.724;37.612;2023-04-03T04:49:03;28.52;;;17.52;;
42094;SDS011;27753;55.724;37.612;2023-04-03T04:51:29;25.67;;;17.05;;
42094;SDS011;27753;55.724;37.612;2023-04-03T04:53:55;29.00;;;17.15;;
42094;SDS011;27753;55.724;37.612;2023-04-03T04:56:21;24.77;;;17.10;;
42094;SDS011;27753;55.724;37.612;2023-04-03T04:58:47;29.10;;;16.90;;
42094;SDS011;27753;55.724;37.612;2023-04-03T05:01:13;24.58;;;17.63;;
42094;SDS011;27753;55.724;37.612;2023-04-03T05:03:39;22.98;;;16.75;;
42094;SDS011;27753;55.724;37.612;2023-04-03T05:06:05;32.40;;;16.40;;
42094;SDS011;27753;55.724;37.612;2023-04-03T05:08:31;28.33;;;15.68;;
42094;SDS011;27753;55.724;37.612;2023-04-03T05:10:57;19.55;;;16.27;;
42094;SDS011;27753;55.724;37.612;2023-04-03T05:13:23;23.38;;;15.75;;
42094;SDS011;27753;55.724;37.612;2023-04-03T05:15:49;20.70;;;15.50;;
42094;SDS011;27753;55.724;37.612;2023-04-03T05:18:15;23.67;;;14.98;;
42094;SDS011;27753;55.724;37.612;2023-04-03T05:20:41;26.98;;;17.08;;
42094;SDS011;27753;55.724;37.612;2023-04-03T05:23:09;24.52;;;15.80;;
42094;SDS011;27753;55.724;37.612;2023-04-03T05:25:37;27.98;;;15.63;;
42094;SDS011;27753;55.724;37.612;2023-04-03T05:28:03;26.17;;;15.38;;
42094;SDS011;27753;55.724;37.612;2023-04-03T05:30:29;24.27;;;15.80;;
42094;SDS011;27753;55.724;37.612;2023-04-03T05:32:55;21.75;;;14.18;;
42094;SDS011;27753;55.724;37.612;2023-04-03T05:35:21;27.10;;;15.57;;
42094;SDS011;27753;55.724;37.612;2023-04-03T05:37:47;22.90;;;17.83;;
42094;SDS011;27753;55.724;37.612;2023-04-03T05:40:13;28.48;;;16.80;;
42094;SDS011;27753;55.724;37.612;2023-04-03T05:42:39;32.05;;;17.02;;
42094;SDS011;27753;55.724;37.612;2023-04-03T05:45:05;29.42;;;17.80;;
42094;SDS011;27753;55.724;37.612;2023-04-03T05:47:31;29.60;;;16.60;;
42094;SDS011;27753;55.724;37.612;2023-04-03T05:49:57;30.10;;;16.85;;
42094;SDS011;27753;55.724;37.612;2023-04-03T05:52:26;23.95;;;15.50;;
42094;SDS011;27753;55.724;37.612;2023-04-03T05:54:54;29.50;;;18.00;;
42094;SDS011;27753;55.724;37.612;2023-04-03T05:57:21;30.50;;;18.38;;
42094;SDS011;27753;55.724;37.612;2023-04-03T05:59:47;33.13;;;17.83;;
42094;SDS011;27753;55.724;37.612;2023-04-03T06:02:15;22.60;;;16.83;;
42094;SDS011;27753;55.724;37.612;2023-04-03T06:04:42;24.25;;;15.15;;
42094;SDS011;27753;55.724;37.612;2023-04-03T06:07:12;22.52;;;15.45;;
42094;SDS011;27753;55.724;37.612;2023-04-03T06:09:42;22.33;;;14.10;;
42094;SDS011;27753;55.724;37.612;2023-04-03T06:12:09;26.08;;;16.58;;
42094;SDS011;27753;55.724;37.612;2023-04-03T06:14:35;26.92;;;14.73;;
42094;SDS011;27753;55.724;37.612;2023-04-03T06:17:01;25.15;;;17.65;;
42094;SDS011;27753;55.724;37.612;2023-04-03T06:19:28;23.70;;;15.43;;
42094;SDS011;27753;55.724;37.612;2023-04-03T06:21:54;26.13;;;15.02;;
42094;SDS011;27753;55.724;37.612;2023-04-03T06:24:20;31.60;;;15.13;;
42094;SDS011;27753;55.724;37.612;2023-04-03T06:26:48;33.60;;;16.95;;
42094;SDS011;27753;55.724;37.612;2023-04-03T06:29:16;25.95;;;15.02;;
42094;SDS011;27753;55.724;37.612;2023-04-03T06:31:43;38.45;;;17.85;;
42094;SDS011;27753;55.724;37.612;2023-04-03T06:34:09;32.40;;;17.10;;
42094;SDS011;27753;55.724;37.612;2023-04-03T06:36:36;27.05;;;16.55;;
42094;SDS011;27753;55.724;37.612;2023-04-03T06:39:03;25.60;;;16.35;;
42094;SDS011;27753;55.724;37.612;2023-04-03T06:41:30;28.65;;;15.23;;
42094;SDS011;27753;55.724;37.612;2023-04-03T06:43:56;26.73;;;15.52;;
42094;SDS011;27753;55.724;37.612;2023-04-03T06:46:23;25.33;;;14.75;;
42094;SDS011;27753;55.724;37.612;2023-04-03T06:48:51;26.52;;;16.50;;
42094;SDS011;27753;55.724;37.612;2023-04-03T06:51:18;20.73;;;15.13;;
42094;SDS011;27753;55.724;37.612;2023-04-03T06:53:49;26.85;;;15.90;;
42094;SDS011;27753;55.724;37.612;2023-04-03T06:56:17;32.00;;;17.88;;
42094;SDS011;27753;55.724;37.612;2023-04-03T06:58:43;34.30;;;16.60;;
42094;SDS011;27753;55.724;37.612;2023-04-03T07:01:10;24.33;;;16.35;;
42094;SDS011;27753;55.724;37.612;2023-04-03T07:03:37;26.70;;;18.00;;
42094;SDS011;27753;55.724;37.612;2023-04-03T07:06:04;28.55;;;17.73;;
42094;SDS011;27753;55.724;37.612;2023-04-03T07:08:31;28.27;;;17.08;;
42094;SDS011;27753;55.724;37.612;2023-04-03T07:10:57;35.38;;;17.33;;
42094;SDS011;27753;55.724;37.612;2023-04-03T07:13:23;26.38;;;17.02;;
42094;SDS011;27753;55.724;37.612;2023-04-03T07:15:49;26.48;;;18.08;;
42094;SDS011;27753;55.724;37.612;2023-04-03T07:18:15;36.35;;;17.55;;
42094;SDS011;27753;55.724;37.612;2023-04-03T07:20:44;30.15;;;16.70;;
42094;SDS011;27753;55.724;37.612;2023-04-03T07:23:10;28.23;;;17.63;;
42094;SDS011;27753;55.724;37.612;2023-04-03T07:25:37;34.45;;;17.48;;
42094;SDS011;27753;55.724;37.612;2023-04-03T07:28:09;30.58;;;16.48;;
42094;SDS011;27753;55.724;37.612;2023-04-03T07:30:41;27.67;;;17.27;;
42094;SDS011;27753;55.724;37.612;2023-04-03T07:33:11;26.40;;;16.05;;
42094;SDS011;27753;55.724;37.612;2023-04-03T07:35:39;41.75;;;17.58;;
42094;SDS011;27753;55.724;37.612;2023-04-03T07:38:06;25.30;;;17.20;;
42094;SDS011;27753;55.724;37.612;2023-04-03T07:40:33;20.67;;;15.32;;
42094;SDS011;27753;55.724;37.612;2023-04-03T07:43:00;25.48;;;15.85;;
42094;SDS011;27753;55.724;37.612;2023-04-03T07:45:26;22.92;;;14.73;;
42094;SDS011;27753;55.724;37.612;2023-04-03T07:47:52;21.23;;;14.88;;
42094;SDS011;27753;55.724;37.612;2023-04-03T07:50:18;24.95;;;15.15;;
42094;SDS011;27753;55.724;37.612;2023-04-03T07:52:44;23.73;;;16.02;;
42094;SDS011;27753;55.724;37.612;2023-04-03T07:57:37;24.95;;;17.75;;
42094;SDS011;27753;55.724;37.612;2023-04-03T08:00:06;33.80;;;17.77;;
42094;SDS011;27753;55.724;37.612;2023-04-03T08:02:32;31.70;;;18.15;;
42094;SDS011;27753;55.724;37.612;2023-04-03T08:04:58;35.50;;;18.85;;
42094;SDS011;27753;55.724;37.612;2023-04-03T08:07:24;42.42;;;20.52;;
42094;SDS011;27753;55.724;37.612;2023-04-03T08:09:51;27.52;;;18.27;;
42094;SDS011;27753;55.724;37.612;2023-04-03T08:12:17;33.33;;;18.52;;
42094;SDS011;27753;55.724;37.612;2023-04-03T08:14:43;37.60;;;20.63;;
42094;SDS011;27753;55.724;37.612;2023-04-03T08:17:09;34.92;;;21.02;;
42094;SDS011;27753;55.724;37.612;2023-04-03T08:19:39;47.58;;;20.13;;
42094;SDS011;27753;55.724;37.612;2023-04-03T08:22:06;39.25;;;20.35;;
42094;SDS011;27753;55.724;37.612;2023-04-03T08:24:32;40.10;;;20.60;;
42094;SDS011;27753;55.724;37.612;2023-04-03T08:26:59;36.20;;;21.05;;
42094;SDS011;27753;55.724;37.612;2023-04-03T08:29:25;36.05;;;22.02;;
42094;SDS011;27753;55.724;37.612;2023-04-03T08:31:51;46.95;;;24.23;;
42094;SDS011;27753;55.724;37.612;2023-04-03T08:34:17;39.53;;;20.17;;
42094;SDS011;27753;55.724;37.612;2023-04-03T08:36:44;31.48;;;19.88;;
42094;SDS011;27753;55.724;37.612;2023-04-03T08:39:10;44.92;;;22.20;;
42094;SDS011;27753;55.724;37.612;2023-04-03T08:41:38;39.50;;;22.23;;
42094;SDS011;27753;55.724;37.612;2023-04-03T08:49:23;35.75;;;21.65;;
42094;SDS011;27753;55.724;37.612;2023-04-03T08:51:53;36.75;;;21.67;;
42094;SDS011;27753;55.724;37.612;2023-04-03T08:54:23;36.95;;;21.05;;
42094;SDS011;27753;55.724;37.612;2023-04-03T08:57:01;35.70;;;21.20;;
42094;SDS011;27753;55.724;37.612;2023-04-03T08:59:31;45.22;;;23.58;;
42094;SDS011;27753;55.724;37.612;2023-04-03T09:02:01;38.50;;;21.33;;
42094;SDS011;27753;55.724;37.612;2023-04-03T09:04:31;43.95;;;21.95;;
42094;SDS011;27753;55.724;37.612;2023-04-03T09:07:02;43.45;;;22.95;;
42094;SDS011;27753;55.724;37.612;2023-04-03T09:09:35;32.13;;;20.33;;
42094;SDS011;27753;55.724;37.612;2023-04-03T09:18:04;34.20;;;19.90;;
42094;SDS011;27753;55.724;37.612;2023-04-03T09:23:32;36.20;;;21.17;;
42094;SDS011;27753;55.724;37.612;2023-04-03T09:26:05;36.08;;;21.05;;
42094;SDS011;27753;55.724;37.612;2023-04-03T09:28:39;30.58;;;17.83;;
42094;SDS011;27753;55.724;37.612;2023-04-03T09:31:42;33.42;;;21.27;;
42094;SDS011;27753;55.724;37.612;2023-04-03T09:34:14;29.30;;;18.95;;
42094;SDS011;27753;55.724;37.612;2023-04-03T09:36:56;28.40;;;18.75;;
42094;SDS011;27753;55.724;37.612;2023-04-03T09:39:25;27.02;;;18.08;;
42094;SDS011;27753;55.724;37.612;2023-04-03T09:42:11;44.45;;;20.83;;
42094;SDS011;27753;55.724;37.612;2023-04-03T09:44:44;33.75;;;20.48;;
42094;SDS011;27753;55.724;37.612;2023-04-03T09:52:39;31.27;;;18.63;;
42094;SDS011;27753;55.724;37.612;2023-04-03T09:55:07;30.90;;;17.60;;
42094;SDS011;27753;55.724;37.612;2023-04-03T09:57:38;30.73;;;18.23;;
42094;SDS011;27753;55.724;37.612;2023-04-03T10:00:06;24.73;;;16.90;;
42094;SDS011;27753;55.724;37.612;2023-04-03T10:02:44;38.40;;;18.88;;
42094;SDS011;27753;55.724;37.612;2023-04-03T10:05:34;30.95;;;18.67;;
42094;SDS011;27753;55.724;37.612;2023-04-03T10:08:09;25.77;;;16.95;;
42094;SDS011;27753;55.724;37.612;2023-04-03T10:10:35;42.85;;;20.25;;
42094;SDS011;27753;55.724;37.612;2023-04-03T10:13:06;31.27;;;17.83;;
42094;SDS011;27753;55.724;37.612;2023-04-03T10:15:45;27.30;;;18.02;;
42094;SDS011;27753;55.724;37.612;2023-04-03T10:18:39;30.35;;;18.13;;
42094;SDS011;27753;55.724;37.612;2023-04-03T10:21:34;31.38;;;17.33;;
42094;SDS011;27753;55.724;37.612;2023-04-03T10:27:00;40.15;;;20.08;;
42094;SDS011;27753;55.724;37.612;2023-04-03T10:29:38;29.00;;;17.08;;
42094;SDS011;27753;55.724;37.612;2023-04-03T10:35:11;36.10;;;17.15;;
42094;SDS011;27753;55.724;37.612;2023-04-03T10:40:30;26.52;;;15.32;;
42094;SDS011;27753;55.724;37.612;2023-04-03T10:43:15;29.02;;;16.50;;
42094;SDS011;27753;55.724;37.612;2023-04-03T10:46:09;28.50;;;15.20;;
42094;SDS011;27753;55.724;37.612;2023-04-03T10:54:46;22.33;;;13.55;;
42094;SDS011;27753;55.724;37.612;2023-04-03T10:57:35;22.35;;;14.73;;
42094;SDS011;27753;55.724;37.612;2023-04-03T11:00:04;24.02;;;15.05;;
42094;SDS011;27753;55.724;37.612;2023-04-03T11:03:03;30.38;;;14.48;;
42094;SDS011;27753;55.724;37.612;2023-04-03T11:05:44;27.45;;;14.23;;
42094;SDS011;27753;55.724;37.612;2023-04-03T11:11:01;29.90;;;16.23;;
42094;SDS011;27753;55.724;37.612;2023-04-03T11:13:52;27.20;;;16.13;;
42094;SDS011;27753;55.724;37.612;2023-04-03T11:21:37;31.67;;;16.05;;
42094;SDS011;27753;55.724;37.612;2023-04-03T11:24:22;26.77;;;16.40;;
42094;SDS011;27753;55.724;37.612;2023-04-03T11:26:51;27.50;;;15.77;;
42094;SDS011;27753;55.724;37.612;2023-04-03T11:29:21;21.60;;;13.95;;
42094;SDS011;27753;55.724;37.612;2023-04-03T11:34:40;29.98;;;15.38;;
42094;SDS011;27753;55.724;37.612;2023-04-03T11:42:43;41.88;;;17.35;;
42094;SDS011;27753;55.724;37.612;2023-04-03T11:47:52;22.38;;;14.68;;
42094;SDS011;27753;55.724;37.612;2023-04-03T12:14:01;25.13;;;14.25;;
42094;SDS011;27753;55.724;37.612;2023-04-03T12:16:33;18.77;;;11.93;;
42094;SDS011;27753;55.724;37.612;2023-04-03T12:24:31;26.52;;;10.45;;
42094;SDS011;27753;55.724;37.612;2023-04-03T12:27:09;20.80;;;9.57;;
42094;SDS011;27753;55.724;37.612;2023-04-03T12:46:02;16.38;;;8.75;;
42094;SDS011;27753;55.724;37.612;2023-04-03T12:48:38;13.43;;;7.25;;
42094;SDS011;27753;55.724;37.612;2023-04-03T12:51:19;21.65;;;8.07;;
42094;SDS011;27753;55.724;37.612;2023-04-03T12:54:13;20.52;;;9.05;;
42094;SDS011;27753;55.724;37.612;2023-04-03T12:56:42;16.25;;;10.52;;
42094;SDS011;27753;55.724;37.612;2023-04-03T12:59:19;17.95;;;8.43;;
42094;SDS011;27753;55.724;37.612;2023-04-03T13:02:09;16.90;;;9.07;;
42094;SDS011;27753;55.724;37.612;2023-04-03T13:07:33;19.07;;;8.30;;
42094;SDS011;27753;55.724;37.612;2023-04-03T13:12:35;19.92;;;9.10;;
42094;SDS011;27753;55.724;37.612;2023-04-03T13:15:16;19.75;;;9.27;;
42094;SDS011;27753;55.724;37.612;2023-04-03T13:17:50;21.42;;;9.23;;
42094;SDS011;27753;55.724;37.612;2023-04-03T13:20:22;18.67;;;9.43;;
42094;SDS011;27753;55.724;37.612;2023-04-03T13:25:17;20.10;;;9.77;;
42094;SDS011;27753;55.724;37.612;2023-04-03T13:27:46;22.83;;;10.73;;
42094;SDS011;27753;55.724;37.612;2023-04-03T13:33:29;19.45;;;9.95;;
42094;SDS011;27753;55.724;37.612;2023-04-03T13:36:03;17.08;;;10.75;;
42094;SDS011;27753;55.724;37.612;2023-04-03T13:38:41;17.05;;;9.70;;
42094;SDS011;27753;55.724;37.612;2023-04-03T13:41:27;21.23;;;10.13;;
42094;SDS011;27753;55.724;37.612;2023-04-03T13:46:51;15.05;;;9.60;;
42094;SDS011;27753;55.724;37.612;2023-04-03T13:49:22;20.67;;;11.35;;
42094;SDS011;27753;55.724;37.612;2023-04-03T13:52:22;24.17;;;11.35;;
42094;SDS011;27753;55.724;37.612;2023-04-03T13:54:58;19.95;;;10.02;;
42094;SDS011;27753;55.724;37.612;2023-04-03T13:57:26;17.60;;;11.77;;
42094;SDS011;27753;55.724;37.612;2023-04-03T13:59:53;20.77;;;12.50;;
42094;SDS011;27753;55.724;37.612;2023-04-03T14:02:30;17.38;;;11.18;;
42094;SDS011;27753;55.724;37.612;2023-04-03T14:04:59;22.98;;;11.25;;
42094;SDS011;27753;55.724;37.612;2023-04-03T14:07:29;20.75;;;12.40;;
42094;SDS011;27753;55.724;37.612;2023-04-03T14:09:56;17.50;;;10.68;;
42094;SDS011;27753;55.724;37.612;2023-04-03T14:12:33;19.33;;;10.55;;
42094;SDS011;27753;55.724;37.612;2023-04-03T14:15:03;14.43;;;10.32;;
42094;SDS011;27753;55.724;37.612;2023-04-03T14:17:44;20.13;;;11.65;;
42094;SDS011;27753;55.724;37.612;2023-04-03T14:20:14;13.43;;;8.85;;
42094;SDS011;27753;55.724;37.612;2023-04-03T14:22:44;15.80;;;8.55;;
42094;SDS011;27753;55.724;37.612;2023-04-03T14:25:11;14.75;;;8.85;;
42094;SDS011;27753;55.724;37.612;2023-04-03T14:27:47;15.23;;;9.10;;
42094;SDS011;27753;55.724;37.612;2023-04-03T14:30:17;16.10;;;10.32;;
42094;SDS011;27753;55.724;37.612;2023-04-03T14:32:51;13.80;;;8.82;;
42094;SDS011;27753;55.724;37.612;2023-04-03T14:35:18;12.85;;;8.60;;
42094;SDS011;27753;55.724;37.612;2023-04-03T14:37:45;12.68;;;8.40;;
42094;SDS011;27753;55.724;37.612;2023-04-03T14:40:17;14.45;;;9.60;;
42094;SDS011;27753;55.724;37.612;2023-04-03T14:42:45;20.00;;;8.95;;
42094;SDS011;27753;55.724;37.612;2023-04-03T14:45:13;21.63;;;9.75;;
42094;SDS011;27753;55.724;37.612;2023-04-03T14:47:47;19.55;;;10.75;;
42094;SDS011;27753;55.724;37.612;2023-04-03T14:50:20;16.98;;;9.35;;
42094;SDS011;27753;55.724;37.612;2023-04-03T14:52:51;16.77;;;9.35;;
42094;SDS011;27753;55.724;37.612;2023-04-03T14:55:20;14.13;;;8.90;;
42094;SDS011;27753;55.724;37.612;2023-04-03T14:57:48;14.60;;;9.30;;
42094;SDS011;27753;55.724;37.612;2023-04-03T15:00:14;14.80;;;9.57;;
42094;SDS011;27753;55.724;37.612;2023-04-03T15:02:42;19.65;;;10.68;;
42094;SDS011;27753;55.724;37.612;2023-04-03T15:05:09;15.20;;;11.10;;
42094;SDS011;27753;55.724;37.612;2023-04-03T15:10:18;15.43;;;10.38;;
42094;SDS011;27753;55.724;37.612;2023-04-03T15:12:49;17.30;;;10.20;;
42094;SDS011;27753;55.724;37.612;2023-04-03T15:15:16;11.02;;;9.00;;
42094;SDS011;27753;55.724;37.612;2023-04-03T15:17:44;17.15;;;8.57;;
42094;SDS011;27753;55.724;37.612;2023-04-03T15:20:14;20.75;;;9.38;;
42094;SDS011;27753;55.724;37.612;2023-04-03T15:22:43;15.40;;;9.13;;
42094;SDS011;27753;55.724;37.612;2023-04-03T15:25:09;21.25;;;9.45;;
42094;SDS011;27753;55.724;37.612;2023-04-03T15:27:36;12.85;;;8.82;;
42094;SDS011;27753;55.724;37.612;2023-04-03T15:30:05;20.90;;;9.05;;
42094;SDS011;27753;55.724;37.612;2023-04-03T15:32:35;14.15;;;8.32;;
42094;SDS011;27753;55.724;37.612;2023-04-03T15:35:02;12.25;;;8.52;;
42094;SDS011;27753;55.724;37.612;2023-04-03T15:37:28;19.23;;;10.50;;
42094;SDS011;27753;55.724;37.612;2023-04-03T15:39:57;18.23;;;10.05;;
42094;SDS011;27753;55.724;37.612;2023-04-03T15:42:23;19.42;;;10.73;;
42094;SDS011;27753;55.724;37.612;2023-04-03T15:44:49;18.02;;;10.25;;
42094;SDS011;27753;55.724;37.612;2023-04-03T15:47:15;16.33;;;10.85;;
42094;SDS011;27753;55.724;37.612;2023-04-03T15:49:41;19.83;;;11.32;;
42094;SDS011;27753;55.724;37.612;2023-04-03T15:52:07;15.75;;;11.02;;
42094;SDS011;27753;55.724;37.612;2023-04-03T15:54:34;18.50;;;10.93;;
42094;SDS011;27753;55.724;37.612;2023-04-03T15:57:00;19.30;;;10.43;;
42094;SDS011;27753;55.724;37.612;2023-04-03T15:59:26;14.95;;;11.15;;
42094;SDS011;27753;55.724;37.612;2023-04-03T16:01:54;25.83;;;10.45;;
42094;SDS011;27753;55.724;37.612;2023-04-03T16:04:20;28.90;;;16.35;;
42094;SDS011;27753;55.724;37.612;2023-04-03T16:06:46;18.00;;;10.50;;
42094;SDS011;27753;55.724;37.612;2023-04-03T16:09:12;25.60;;;11.60;;
42094;SDS011;27753;55.724;37.612;2023-04-03T16:11:38;21.17;;;10.52;;
42094;SDS011;27753;55.724;37.612;2023-04-03T16:14:07;20.98;;;11.30;;
42094;SDS011;27753;55.724;37.612;2023-04-03T16:16:33;18.33;;;11.17;;
42094;SDS011;27753;55.724;37.612;2023-04-03T16:19:00;18.23;;;10.23;;
42094;SDS011;27753;55.724;37.612;2023-04-03T16:21:26;16.60;;;11.70;;
42094;SDS011;27753;55.724;37.612;2023-04-03T16:23:52;29.20;;;13.70;;